createdAt,value
2022-12-15T00:00:02.063Z,50.65
2022-12-15T00:02:47.481Z,50.49
2022-12-15T00:05:32.985Z,50.22
2022-12-15T00:08:25.011Z,50.75
2022-12-15T00:11:10.485Z,50.54
2022-12-15T00:13:55.891Z,50.21
2022-12-15T00:16:42.618Z,50.48
2022-12-15T00:19:28.001Z,50.29
2022-12-15T00:22:13.441Z,50.27
2022-12-15T00:24:58.978Z,50.61
2022-12-15T00:27:44.450Z,50.39
2022-12-15T00:30:30.447Z,50.47
2022-12-15T00:33:25.286Z,50.40
2022-12-15T00:36:10.704Z,50.61
2022-12-15T00:38:44.921Z,50.43
2022-12-15T00:41:13.315Z,50.39
2022-12-15T00:43:41.253Z,50.26
2022-12-15T00:46:26.902Z,50.52
2022-12-15T00:48:56.731Z,50.48
2022-12-15T00:51:42.357Z,50.50
2022-12-15T00:54:27.881Z,50.40
2022-12-15T00:57:13.305Z,50.37
2022-12-15T00:59:58.885Z,50.47
2022-12-15T01:02:44.557Z,50.53
2022-12-15T01:05:31.441Z,50.50
2022-12-15T01:08:17.868Z,51.29
2022-12-15T01:11:03.436Z,50.83
2022-12-15T01:13:50.010Z,50.84
2022-12-15T01:16:35.987Z,50.83
2022-12-15T01:19:21.594Z,50.78
2022-12-15T01:21:51.056Z,50.72
2022-12-15T01:24:19.299Z,50.76
2022-12-15T01:26:47.182Z,50.95
2022-12-15T01:29:15.043Z,51.22
2022-12-15T01:31:44.073Z,50.96
2022-12-15T01:34:12.103Z,51.02
2022-12-15T01:36:40.029Z,51.13
2022-12-15T01:39:09.321Z,51.01
2022-12-15T01:41:36.271Z,52.77
2022-12-15T01:44:19.907Z,51.56
2022-12-15T01:46:48.287Z,51.48
2022-12-15T01:49:17.494Z,51.19
2022-12-15T01:51:47.408Z,51.30
2022-12-15T01:54:17.722Z,51.22
2022-12-15T01:56:46.522Z,51.20
2022-12-15T01:59:16.143Z,51.17
2022-12-15T02:01:44.175Z,51.21
2022-12-15T02:04:17.865Z,51.11
2022-12-15T02:06:45.778Z,51.17
2022-12-15T02:09:13.732Z,51.27
2022-12-15T02:11:51.312Z,51.20
2022-12-15T02:14:23.270Z,51.21
2022-12-15T02:16:58.900Z,51.22
2022-12-15T02:19:41.870Z,51.60
2022-12-15T02:22:17.253Z,51.27
2022-12-15T02:25:03.901Z,51.28
2022-12-15T02:27:52.804Z,51.36
2022-12-15T02:30:35.496Z,51.58
2022-12-15T02:33:09.995Z,51.34
2022-12-15T02:35:43.200Z,51.53
2022-12-15T02:38:11.284Z,51.74
2022-12-15T02:40:40.218Z,51.68
2022-12-15T02:43:08.219Z,51.54
2022-12-15T02:45:42.076Z,51.72
2022-12-15T02:48:13.766Z,51.73
2022-12-15T02:50:52.598Z,51.75
2022-12-15T02:53:33.779Z,51.73
2022-12-15T02:56:05.435Z,53.74
2022-12-15T02:58:36.478Z,53.22
2022-12-15T03:01:08.841Z,52.59
2022-12-15T03:03:36.994Z,52.55
2022-12-15T03:06:05.246Z,52.20
2022-12-15T03:08:33.487Z,52.36
2022-12-15T03:11:01.371Z,52.21
2022-12-15T03:13:29.750Z,52.30
2022-12-15T03:15:58.660Z,52.35
2022-12-15T03:18:28.197Z,52.42
2022-12-15T03:20:56.098Z,52.26
2022-12-15T03:23:24.030Z,52.30
2022-12-15T03:25:51.986Z,52.17
2022-12-15T03:28:19.901Z,52.29
2022-12-15T03:30:50.564Z,52.11
2022-12-15T03:33:18.793Z,52.00
2022-12-15T03:35:48.090Z,52.06
2022-12-15T03:38:16.044Z,52.06
2022-12-15T03:40:43.974Z,52.04
2022-12-15T03:43:11.923Z,52.09
2022-12-15T03:45:39.826Z,52.09
2022-12-15T03:48:07.847Z,52.10
2022-12-15T03:50:35.768Z,52.07
2022-12-15T03:53:05.232Z,52.09
2022-12-15T03:55:33.153Z,52.07
2022-12-15T03:58:01.053Z,52.13
2022-12-15T04:00:28.917Z,52.04
2022-12-15T04:02:56.961Z,52.18
2022-12-15T04:05:26.784Z,52.72
2022-12-15T04:07:54.703Z,52.22
2022-12-15T04:10:27.368Z,52.27
2022-12-15T04:12:59.761Z,52.05
2022-12-15T04:15:27.719Z,51.93
2022-12-15T04:17:55.697Z,52.14
2022-12-15T04:20:23.798Z,52.14
2022-12-15T04:22:52.909Z,52.01
2022-12-15T04:25:39.753Z,52.06
2022-12-15T04:28:26.844Z,52.05
2022-12-15T04:31:13.700Z,52.01
2022-12-15T04:34:00.004Z,51.96
2022-12-15T04:36:45.400Z,51.97
2022-12-15T04:39:30.848Z,51.95
2022-12-15T04:42:16.726Z,51.95
2022-12-15T04:45:03.388Z,52.00
2022-12-15T04:47:48.535Z,51.95
2022-12-15T04:50:34.022Z,52.18
2022-12-15T04:53:26.334Z,51.95
2022-12-15T04:56:17.923Z,51.85
2022-12-15T04:59:03.700Z,51.87
2022-12-15T05:01:50.556Z,51.89
2022-12-15T05:04:35.730Z,51.73
2022-12-15T05:07:20.993Z,51.87
2022-12-15T05:10:12.718Z,51.69
2022-12-15T05:13:00.313Z,52.10
2022-12-15T05:15:45.743Z,52.20
2022-12-15T05:18:32.761Z,52.30
2022-12-15T05:21:18.205Z,52.21
2022-12-15T05:24:03.382Z,52.11
2022-12-15T05:26:52.631Z,52.02
2022-12-15T05:29:38.623Z,52.00
2022-12-15T05:32:06.780Z,53.37
2022-12-15T05:34:37.004Z,52.79
2022-12-15T05:37:05.404Z,52.45
2022-12-15T05:39:33.360Z,52.41
2022-12-15T05:42:01.354Z,52.29
2022-12-15T05:44:29.299Z,52.45
2022-12-15T05:46:57.236Z,52.21
2022-12-15T05:49:25.148Z,52.08
2022-12-15T05:51:54.527Z,52.17
2022-12-15T05:54:22.381Z,52.02
2022-12-15T05:56:50.702Z,52.13
2022-12-15T05:59:19.125Z,51.83
2022-12-15T06:01:47.296Z,51.75
2022-12-15T06:04:15.297Z,51.71
2022-12-15T06:06:43.331Z,51.62
2022-12-15T06:09:12.744Z,51.70
2022-12-15T06:11:40.655Z,51.60
2022-12-15T06:14:08.575Z,51.63
2022-12-15T06:16:42.591Z,51.90
2022-12-15T06:19:12.284Z,51.99
2022-12-15T06:21:40.213Z,51.57
2022-12-15T06:24:09.123Z,51.43
2022-12-15T06:26:39.035Z,51.43
2022-12-15T06:29:08.650Z,51.29
2022-12-15T06:31:36.683Z,51.26
2022-12-15T06:34:04.985Z,51.27
2022-12-15T06:36:32.875Z,51.29
2022-12-15T06:39:01.548Z,51.58
2022-12-15T06:41:30.406Z,52.15
2022-12-15T06:43:59.975Z,52.28
2022-12-15T06:46:28.564Z,52.16
2022-12-15T06:48:56.528Z,51.97
2022-12-15T06:51:24.480Z,52.00
2022-12-15T06:53:54.088Z,52.02
2022-12-15T06:56:27.275Z,51.81
2022-12-15T06:59:01.813Z,51.82
2022-12-15T07:01:30.023Z,51.94
2022-12-15T07:04:00.036Z,51.83
2022-12-15T07:06:28.323Z,51.50
2022-12-15T07:08:56.735Z,51.56
2022-12-15T07:11:24.852Z,51.52
2022-12-15T07:13:52.895Z,51.40
2022-12-15T07:16:22.803Z,51.35
2022-12-15T07:18:50.982Z,51.45
2022-12-15T07:21:18.984Z,51.56
2022-12-15T07:23:54.699Z,51.37
2022-12-15T07:26:24.196Z,51.45
2022-12-15T07:28:52.952Z,51.42
2022-12-15T07:31:22.510Z,51.97
2022-12-15T07:33:52.232Z,51.36
2022-12-15T07:36:20.720Z,51.30
2022-12-15T07:38:50.391Z,51.23
2022-12-15T07:41:18.882Z,51.15
2022-12-15T07:43:49.786Z,50.92
2022-12-15T07:46:17.839Z,51.01
2022-12-15T07:48:50.479Z,50.85
2022-12-15T07:51:20.695Z,50.81
2022-12-15T07:53:49.557Z,50.51
2022-12-15T07:56:17.564Z,50.61
2022-12-15T07:58:45.443Z,50.77
2022-12-15T08:01:14.220Z,50.55
2022-12-15T08:03:42.185Z,50.47
2022-12-15T08:06:12.327Z,50.22
2022-12-15T08:08:40.595Z,50.38
2022-12-15T08:11:08.562Z,50.35
2022-12-15T08:16:24.414Z,50.19
2022-12-15T08:18:52.418Z,50.42
2022-12-15T08:21:21.752Z,50.05
2022-12-15T08:23:49.672Z,50.00
2022-12-15T08:26:18.395Z,49.92
2022-12-15T08:28:46.502Z,49.98
2022-12-15T08:31:15.699Z,50.06
2022-12-15T08:33:43.714Z,49.97
2022-12-15T08:36:12.937Z,50.01
2022-12-15T08:38:42.410Z,49.81
2022-12-15T08:41:11.141Z,49.79
2022-12-15T08:43:47.224Z,49.73
2022-12-15T08:46:16.874Z,49.61
2022-12-15T08:48:45.013Z,49.50
2022-12-15T08:51:13.090Z,49.49
2022-12-15T08:53:42.543Z,49.64
2022-12-15T08:56:12.210Z,49.36
2022-12-15T08:58:40.346Z,49.21
2022-12-15T09:01:10.011Z,49.45
2022-12-15T09:03:38.012Z,49.16
2022-12-15T09:06:06.243Z,49.14
2022-12-15T09:08:34.217Z,49.31
2022-12-15T09:11:05.592Z,49.10
2022-12-15T09:13:33.932Z,49.00
2022-12-15T09:16:11.138Z,49.20
2022-12-15T09:18:39.558Z,49.19
2022-12-15T09:21:08.339Z,49.13
2022-12-15T09:23:37.023Z,48.96
2022-12-15T09:26:07.683Z,48.83
2022-12-15T09:28:35.646Z,48.89
2022-12-15T09:31:06.802Z,48.84
2022-12-15T09:33:35.178Z,49.10
2022-12-15T09:36:03.622Z,48.91
2022-12-15T09:38:31.655Z,48.88
2022-12-15T09:40:59.479Z,48.92
2022-12-15T09:43:40.097Z,48.64
2022-12-15T09:46:25.295Z,48.77
2022-12-15T09:48:53.305Z,48.29
2022-12-15T09:51:31.203Z,48.32
2022-12-15T09:53:59.641Z,48.19
2022-12-15T09:56:40.893Z,48.41
2022-12-15T09:59:18.515Z,48.23
2022-12-15T10:01:48.090Z,48.30
2022-12-15T10:04:18.106Z,48.13
2022-12-15T10:06:50.651Z,47.91
2022-12-15T10:09:19.784Z,48.03
2022-12-15T10:11:50.526Z,48.00
2022-12-15T10:14:25.971Z,47.79
2022-12-15T10:17:02.427Z,47.88
2022-12-15T10:19:34.856Z,47.87
2022-12-15T10:22:02.781Z,47.92
2022-12-15T10:25:07.796Z,47.50
2022-12-15T10:27:30.259Z,47.78
2022-12-15T10:30:02.322Z,47.39
2022-12-15T10:32:39.344Z,47.34
2022-12-15T10:35:15.448Z,47.16
2022-12-15T10:37:43.938Z,47.26
2022-12-15T10:40:16.357Z,47.07
2022-12-15T10:42:47.457Z,47.23
2022-12-15T10:45:33.419Z,47.18
2022-12-15T10:48:02.619Z,47.31
2022-12-15T10:50:30.764Z,47.31
2022-12-15T10:52:58.807Z,47.19
2022-12-15T10:55:38.005Z,47.37
2022-12-15T10:58:14.274Z,47.37
2022-12-15T11:00:43.509Z,47.26
2022-12-15T11:03:23.046Z,47.02
2022-12-15T11:05:54.406Z,47.08
2022-12-15T11:08:22.655Z,46.90
2022-12-15T11:11:08.986Z,47.00
2022-12-15T11:13:37.256Z,46.69
2022-12-15T11:16:15.957Z,46.61
2022-12-15T11:18:45.209Z,46.80
2022-12-15T11:21:14.024Z,46.73
2022-12-15T11:23:56.235Z,46.49
2022-12-15T11:26:30.374Z,45.88
2022-12-15T11:29:00.908Z,45.90
2022-12-15T11:31:33.400Z,45.83
2022-12-15T11:34:01.287Z,46.17
2022-12-15T11:36:51.146Z,45.93
2022-12-15T11:39:22.947Z,46.08
2022-12-15T11:41:54.773Z,45.92
2022-12-15T11:44:40.235Z,45.79
2022-12-15T11:47:13.289Z,45.64
2022-12-15T11:50:16.295Z,45.86
2022-12-15T11:53:22.421Z,46.06
2022-12-15T11:55:53.333Z,45.87
2022-12-15T11:58:37.301Z,45.68
2022-12-15T12:01:09.955Z,46.03
2022-12-15T12:03:42.460Z,46.23
2022-12-15T12:06:13.050Z,46.30
2022-12-15T12:08:55.046Z,46.59
2022-12-15T12:11:25.164Z,46.87
2022-12-15T12:14:09.671Z,46.48
2022-12-15T12:16:41.545Z,46.55
2022-12-15T12:19:12.985Z,46.09
2022-12-15T12:21:41.843Z,46.31
2022-12-15T12:24:13.472Z,46.01
2022-12-15T12:26:42.462Z,46.30
2022-12-15T12:29:14.208Z,45.96
2022-12-15T12:31:45.067Z,46.25
2022-12-15T12:34:17.047Z,45.84
2022-12-15T12:36:45.158Z,46.14
2022-12-15T12:39:19.018Z,45.95
2022-12-15T12:41:48.809Z,45.98
2022-12-15T12:44:20.460Z,45.96
2022-12-15T12:46:49.097Z,45.78
2022-12-15T12:49:26.693Z,45.71
2022-12-15T12:51:55.368Z,45.96
2022-12-15T12:54:41.430Z,45.59
2022-12-15T12:57:38.476Z,45.79
2022-12-15T13:00:21.438Z,45.35
2022-12-15T13:03:12.367Z,45.74
2022-12-15T13:05:41.950Z,45.66
2022-12-15T13:08:40.439Z,45.66
2022-12-15T13:11:46.434Z,45.38
2022-12-15T13:14:24.125Z,45.37
2022-12-15T13:17:24.970Z,45.22
2022-12-15T13:20:26.863Z,45.31
2022-12-15T13:22:57.453Z,45.39
2022-12-15T13:25:38.634Z,45.42
2022-12-15T13:28:27.140Z,45.56
2022-12-15T13:31:43.951Z,45.13
2022-12-15T13:34:25.476Z,45.11
2022-12-15T13:36:55.701Z,44.97
2022-12-15T13:39:58.750Z,45.13
2022-12-15T13:42:53.068Z,45.13
2022-12-15T13:45:45.350Z,45.45
2022-12-15T13:48:33.526Z,45.55
2022-12-15T13:51:07.578Z,45.50
2022-12-15T13:53:40.136Z,45.31
2022-12-15T13:56:20.703Z,45.60
2022-12-15T13:58:57.685Z,45.44
2022-12-15T14:01:32.234Z,45.56
2022-12-15T14:04:05.269Z,45.61
2022-12-15T14:06:36.628Z,45.67
2022-12-15T14:09:05.079Z,45.50
2022-12-15T14:11:52.436Z,45.30
2022-12-15T14:14:23.446Z,45.53
2022-12-15T14:16:59.556Z,45.96
2022-12-15T14:19:29.932Z,45.89
2022-12-15T14:22:01.336Z,45.68
2022-12-15T14:24:41.174Z,45.83
2022-12-15T14:27:11.159Z,45.50
2022-12-15T14:29:39.079Z,45.60
2022-12-15T14:32:07.042Z,45.75
2022-12-15T14:34:37.010Z,45.72
2022-12-15T14:37:07.704Z,45.72
2022-12-15T14:39:37.415Z,45.66
2022-12-15T14:42:05.415Z,45.73
2022-12-15T14:44:38.326Z,45.72
2022-12-15T14:47:08.402Z,45.77
2022-12-15T14:49:40.028Z,46.04
2022-12-15T14:52:08.195Z,46.07
2022-12-15T14:54:37.025Z,45.86
2022-12-15T14:57:13.745Z,46.13
2022-12-15T14:59:43.758Z,45.85
2022-12-15T15:02:13.842Z,45.93
2022-12-15T15:04:42.255Z,45.80
2022-12-15T15:07:17.624Z,45.91
2022-12-15T15:09:45.995Z,46.11
2022-12-15T15:12:18.333Z,46.02
2022-12-15T15:14:48.697Z,46.02
2022-12-15T15:17:26.589Z,46.11
2022-12-15T15:19:55.635Z,46.17
2022-12-15T15:22:32.307Z,46.02
2022-12-15T15:25:00.575Z,46.23
2022-12-15T15:27:33.927Z,45.88
2022-12-15T15:30:17.739Z,45.95
2022-12-15T15:32:56.248Z,46.11
2022-12-15T15:35:25.082Z,46.21
2022-12-15T15:37:53.316Z,46.03
2022-12-15T15:40:21.223Z,45.95
2022-12-15T15:42:49.329Z,46.12
2022-12-15T15:45:18.668Z,45.97
2022-12-15T15:47:48.229Z,46.35
2022-12-15T15:50:17.526Z,46.29
2022-12-15T15:52:45.378Z,46.17
2022-12-15T15:55:16.970Z,45.94
2022-12-15T15:57:44.845Z,46.21
2022-12-15T16:00:19.691Z,46.25
2022-12-15T16:02:47.700Z,46.03
2022-12-15T16:05:15.950Z,46.01
2022-12-15T16:07:43.904Z,46.34
2022-12-15T16:10:14.505Z,46.33
2022-12-15T16:12:43.585Z,46.02
2022-12-15T16:15:19.971Z,46.02
2022-12-15T16:17:48.174Z,46.08
2022-12-15T16:20:17.084Z,46.05
2022-12-15T16:22:46.509Z,46.14
2022-12-15T16:25:15.505Z,45.88
2022-12-15T16:27:43.390Z,46.20
2022-12-15T16:30:21.317Z,45.89
2022-12-15T16:32:49.219Z,45.89
2022-12-15T16:35:17.785Z,45.98
2022-12-15T16:37:47.420Z,45.94
2022-12-15T16:40:17.522Z,46.15
2022-12-15T16:42:46.368Z,45.86
2022-12-15T16:45:16.501Z,46.07
2022-12-15T16:47:46.078Z,46.04
2022-12-15T16:50:15.295Z,46.15
2022-12-15T16:52:43.575Z,46.16
2022-12-15T16:55:21.089Z,45.86
2022-12-15T16:57:49.062Z,46.06
2022-12-15T17:00:19.126Z,46.01
2022-12-15T17:02:48.785Z,46.22
2022-12-15T17:05:16.897Z,46.17
2022-12-15T17:07:45.084Z,46.02
2022-12-15T17:10:20.491Z,46.30
2022-12-15T17:12:48.547Z,46.12
2022-12-15T17:15:21.083Z,46.13
2022-12-15T17:17:50.410Z,45.94
2022-12-15T17:20:30.684Z,46.20
2022-12-15T17:23:00.569Z,46.21
2022-12-15T17:26:09.267Z,46.19
2022-12-15T17:28:21.895Z,46.27
2022-12-15T17:30:50.280Z,46.09
2022-12-15T17:33:23.514Z,46.27
2022-12-15T17:35:52.554Z,46.09
2022-12-15T17:38:21.262Z,46.17
2022-12-15T17:40:49.410Z,46.13
2022-12-15T17:43:18.401Z,46.24
2022-12-15T17:45:46.429Z,46.10
2022-12-15T17:48:14.359Z,45.93
2022-12-15T17:50:44.953Z,46.04
2022-12-15T17:53:12.954Z,46.16
2022-12-15T17:55:40.843Z,46.16
2022-12-15T17:58:16.440Z,46.07
2022-12-15T18:00:49.072Z,46.25
2022-12-15T18:03:17.714Z,46.14
2022-12-15T18:05:47.218Z,46.25
2022-12-15T18:08:16.240Z,46.28
2022-12-15T18:10:44.138Z,45.98
2022-12-15T18:13:18.216Z,46.31
2022-12-15T18:15:46.677Z,46.04
2022-12-15T18:18:14.705Z,46.17
2022-12-15T18:20:42.597Z,46.36
2022-12-15T18:23:15.321Z,45.93
2022-12-15T18:25:43.408Z,45.87
2022-12-15T18:28:19.756Z,46.40
2022-12-15T18:30:47.932Z,46.63
2022-12-15T18:33:15.808Z,46.94
2022-12-15T18:35:44.644Z,46.70
2022-12-15T18:38:18.044Z,46.69
2022-12-15T18:40:46.842Z,47.11
2022-12-15T18:43:15.564Z,46.72
2022-12-15T18:45:43.480Z,46.50
2022-12-15T18:48:16.986Z,46.70
2022-12-15T18:50:44.888Z,46.67
2022-12-15T18:53:19.314Z,46.35
2022-12-15T18:55:47.367Z,46.52
2022-12-15T18:58:25.552Z,46.54
2022-12-15T19:00:53.451Z,46.66
2022-12-15T19:03:21.734Z,46.67
2022-12-15T19:05:49.881Z,46.62
2022-12-15T19:08:20.295Z,46.85
2022-12-15T19:10:51.071Z,46.79
2022-12-15T19:13:19.641Z,46.65
2022-12-15T19:15:47.651Z,46.58
2022-12-15T19:18:33.347Z,46.98
2022-12-15T19:21:19.090Z,46.79
2022-12-15T19:23:48.511Z,46.92
2022-12-15T19:26:16.390Z,46.69
2022-12-15T19:28:44.324Z,46.85
2022-12-15T19:31:12.204Z,47.01
2022-12-15T19:33:40.122Z,47.17
2022-12-15T19:36:11.434Z,46.75
2022-12-15T19:38:39.351Z,46.74
2022-12-15T19:41:09.911Z,47.04
2022-12-15T19:43:38.296Z,46.80
2022-12-15T19:46:06.583Z,46.80
2022-12-15T19:48:34.597Z,46.90
2022-12-15T19:51:02.457Z,46.94
2022-12-15T19:53:30.685Z,46.84
2022-12-15T19:56:01.322Z,46.61
2022-12-15T19:58:31.680Z,47.00
2022-12-15T20:01:00.437Z,46.66
2022-12-15T20:03:29.044Z,46.63
2022-12-15T20:05:57.612Z,46.86
2022-12-15T20:08:26.711Z,46.83
2022-12-15T20:10:55.011Z,46.56
2022-12-15T20:13:23.096Z,46.56
2022-12-15T20:15:52.487Z,46.50
2022-12-15T20:18:20.440Z,46.74
2022-12-15T20:20:49.010Z,46.46
2022-12-15T20:23:18.821Z,46.62
2022-12-15T20:25:47.288Z,46.51
2022-12-15T20:28:17.694Z,46.51
2022-12-15T20:30:45.952Z,46.61
2022-12-15T20:33:15.293Z,46.43
2022-12-15T20:35:43.359Z,46.53
2022-12-15T20:38:22.527Z,46.54
2022-12-15T20:40:50.433Z,46.32
2022-12-15T20:43:20.420Z,46.37
2022-12-15T20:45:51.957Z,46.22
2022-12-15T20:48:23.931Z,46.57
2022-12-15T20:50:52.808Z,46.38
2022-12-15T20:53:21.721Z,46.46
2022-12-15T20:55:49.782Z,46.17
2022-12-15T20:58:18.020Z,46.59
2022-12-15T21:00:46.180Z,46.20
2022-12-15T21:03:23.927Z,46.53
2022-12-15T21:05:52.792Z,46.51
2022-12-15T21:08:24.792Z,46.54
2022-12-15T21:10:53.355Z,46.29
2022-12-15T21:13:24.021Z,46.57
2022-12-15T21:15:51.944Z,46.74
2022-12-15T21:19:03.503Z,46.77
2022-12-15T21:21:13.485Z,46.72
2022-12-15T21:23:42.966Z,46.63
2022-12-15T21:26:11.188Z,46.86
2022-12-15T21:28:39.106Z,47.01
2022-12-15T21:31:07.169Z,46.79
2022-12-15T21:33:35.086Z,47.02
2022-12-15T21:36:03.000Z,46.72
2022-12-15T21:38:33.809Z,47.13
2022-12-15T21:41:02.973Z,46.79
2022-12-15T21:43:32.341Z,46.98
2022-12-15T21:46:00.361Z,46.81
2022-12-15T21:48:45.871Z,47.29
2022-12-15T21:51:15.042Z,47.25
2022-12-15T21:53:44.332Z,46.99
2022-12-15T21:56:15.998Z,47.29
2022-12-15T21:58:43.907Z,47.00
2022-12-15T22:01:15.680Z,47.12
2022-12-15T22:03:44.890Z,47.22
2022-12-15T22:06:17.780Z,47.03
2022-12-15T22:08:47.082Z,47.11
2022-12-15T22:11:20.426Z,47.15
2022-12-15T22:13:48.689Z,47.33
2022-12-15T22:16:16.830Z,47.44
2022-12-15T22:18:44.812Z,47.29
2022-12-15T22:21:13.326Z,47.25
2022-12-15T22:23:41.241Z,47.41
2022-12-15T22:26:15.727Z,47.34
2022-12-15T22:28:43.579Z,47.21
2022-12-15T22:31:11.651Z,47.33
2022-12-15T22:33:39.537Z,47.54
2022-12-15T22:36:07.958Z,47.37
2022-12-15T22:38:36.163Z,47.41
2022-12-15T22:41:04.440Z,47.44
2022-12-15T22:43:35.983Z,47.67
2022-12-15T22:46:04.092Z,47.64
2022-12-15T22:48:34.511Z,47.54
2022-12-15T22:51:02.585Z,47.51
2022-12-15T22:53:31.657Z,47.40
2022-12-15T22:55:59.554Z,47.71
2022-12-15T22:58:28.868Z,47.45
2022-12-15T23:00:58.628Z,47.50
2022-12-15T23:03:27.670Z,47.45
2022-12-15T23:05:55.520Z,47.49
2022-12-15T23:08:23.494Z,47.54
2022-12-15T23:11:08.901Z,47.63
2022-12-15T23:13:36.924Z,47.52
2022-12-15T23:16:22.178Z,47.40
2022-12-15T23:18:50.552Z,47.56
2022-12-15T23:21:19.795Z,47.73
2022-12-15T23:23:47.671Z,47.79
2022-12-15T23:26:16.344Z,47.62
2022-12-15T23:28:44.361Z,47.88
2022-12-15T23:31:13.683Z,47.77
2022-12-15T23:33:42.196Z,47.89
2022-12-15T23:36:10.811Z,47.67
2022-12-15T23:38:38.708Z,47.84
2022-12-15T23:41:06.916Z,47.68
2022-12-15T23:43:36.177Z,47.66
2022-12-15T23:46:05.289Z,47.69
2022-12-15T23:48:35.614Z,47.75
2022-12-15T23:51:07.167Z,47.62
2022-12-15T23:53:36.421Z,47.84
2022-12-15T23:56:09.555Z,47.73
2022-12-15T23:58:37.832Z,47.74
